sensor_id;sensor_type;location;lat;lon;timestamp;P1;durP1;ratioP1;P2;durP2;ratioP2
28934;SDS011;16044;52.726;-2.108;2023-02-28T00:01:31;9.57;;;7.20;;
28934;SDS011;16044;52.726;-2.108;2023-02-28T00:03:59;13.48;;;8.15;;
28934;SDS011;16044;52.726;-2.108;2023-02-28T00:06:26;12.77;;;8.77;;
28934;SDS011;16044;52.726;-2.108;2023-02-28T00:08:54;13.77;;;8.82;;
28934;SDS011;16044;52.726;-2.108;2023-02-28T00:11:21;11.27;;;8.43;;
28934;SDS011;16044;52.726;-2.108;2023-02-28T00:13:48;12.05;;;8.73;;
28934;SDS011;16044;52.726;-2.108;2023-02-28T00:16:17;11.88;;;9.18;;
28934;SDS011;16044;52.726;-2.108;2023-02-28T00:18:48;11.10;;;8.60;;
28934;SDS011;16044;52.726;-2.108;2023-02-28T00:21:16;13.48;;;9.07;;
28934;SDS011;16044;52.726;-2.108;2023-02-28T00:23:45;11.70;;;8.75;;
28934;SDS011;16044;52.726;-2.108;2023-02-28T00:26:13;11.90;;;9.07;;
28934;SDS011;16044;52.726;-2.108;2023-02-28T00:28:40;14.65;;;9.88;;
28934;SDS011;16044;52.726;-2.108;2023-02-28T00:31:06;13.00;;;9.25;;
28934;SDS011;16044;52.726;-2.108;2023-02-28T00:33:34;12.45;;;8.88;;
28934;SDS011;16044;52.726;-2.108;2023-02-28T00:36:01;12.57;;;8.82;;
28934;SDS011;16044;52.726;-2.108;2023-02-28T00:38:33;10.90;;;8.95;;
28934;SDS011;16044;52.726;-2.108;2023-02-28T00:41:01;17.10;;;9.75;;
28934;SDS011;16044;52.726;-2.108;2023-02-28T00:43:34;15.85;;;10.00;;
28934;SDS011;16044;52.726;-2.108;2023-02-28T00:46:05;13.33;;;9.47;;
28934;SDS011;16044;52.726;-2.108;2023-02-28T00:48:33;12.73;;;8.40;;
28934;SDS011;16044;52.726;-2.108;2023-02-28T00:51:00;12.05;;;9.32;;
28934;SDS011;16044;52.726;-2.108;2023-02-28T00:53:31;14.80;;;9.00;;
28934;SDS011;16044;52.726;-2.108;2023-02-28T00:55:59;11.18;;;8.10;;
28934;SDS011;16044;52.726;-2.108;2023-02-28T00:58:26;13.90;;;8.77;;
28934;SDS011;16044;52.726;-2.108;2023-02-28T01:00:53;12.60;;;8.50;;
28934;SDS011;16044;52.726;-2.108;2023-02-28T01:03:21;10.20;;;8.10;;
28934;SDS011;16044;52.726;-2.108;2023-02-28T01:05:51;14.07;;;8.50;;
28934;SDS011;16044;52.726;-2.108;2023-02-28T01:08:19;11.63;;;8.57;;
28934;SDS011;16044;52.726;-2.108;2023-02-28T01:10:46;10.82;;;8.13;;
28934;SDS011;16044;52.726;-2.108;2023-02-28T01:13:14;11.88;;;8.32;;
28934;SDS011;16044;52.726;-2.108;2023-02-28T01:15:48;11.80;;;8.43;;
28934;SDS011;16044;52.726;-2.108;2023-02-28T01:20:45;13.18;;;8.52;;
28934;SDS011;16044;52.726;-2.108;2023-02-28T01:23:12;13.07;;;8.40;;
28934;SDS011;16044;52.726;-2.108;2023-02-28T01:25:39;12.55;;;8.43;;
28934;SDS011;16044;52.726;-2.108;2023-02-28T01:28:09;10.77;;;8.00;;
28934;SDS011;16044;52.726;-2.108;2023-02-28T01:30:36;13.82;;;8.00;;
28934;SDS011;16044;52.726;-2.108;2023-02-28T01:33:03;14.30;;;8.30;;
28934;SDS011;16044;52.726;-2.108;2023-02-28T01:35:33;11.68;;;8.20;;
28934;SDS011;16044;52.726;-2.108;2023-02-28T01:38:01;9.93;;;7.90;;
28934;SDS011;16044;52.726;-2.108;2023-02-28T01:40:51;11.18;;;8.10;;
28934;SDS011;16044;52.726;-2.108;2023-02-28T01:43:20;12.68;;;8.48;;
28934;SDS011;16044;52.726;-2.108;2023-02-28T01:46:02;11.55;;;8.20;;
28934;SDS011;16044;52.726;-2.108;2023-02-28T01:48:32;13.25;;;8.65;;
28934;SDS011;16044;52.726;-2.108;2023-02-28T01:51:06;14.70;;;9.70;;
28934;SDS011;16044;52.726;-2.108;2023-02-28T01:53:41;11.98;;;8.60;;
28934;SDS011;16044;52.726;-2.108;2023-02-28T01:56:16;14.60;;;9.20;;
28934;SDS011;16044;52.726;-2.108;2023-02-28T01:58:48;12.95;;;8.77;;
28934;SDS011;16044;52.726;-2.108;2023-02-28T02:01:18;14.35;;;9.00;;
28934;SDS011;16044;52.726;-2.108;2023-02-28T02:03:51;13.80;;;9.25;;
28934;SDS011;16044;52.726;-2.108;2023-02-28T02:06:23;15.57;;;8.55;;
28934;SDS011;16044;52.726;-2.108;2023-02-28T02:09:07;14.40;;;8.60;;
28934;SDS011;16044;52.726;-2.108;2023-02-28T02:11:34;14.02;;;8.50;;
28934;SDS011;16044;52.726;-2.108;2023-02-28T02:26:15;14.55;;;9.25;;
28934;SDS011;16044;52.726;-2.108;2023-02-28T02:35:32;12.43;;;8.50;;
28934;SDS011;16044;52.726;-2.108;2023-02-28T02:41:04;13.88;;;8.18;;
28934;SDS011;16044;52.726;-2.108;2023-02-28T02:43:41;12.13;;;8.50;;
28934;SDS011;16044;52.726;-2.108;2023-02-28T02:46:18;15.02;;;8.75;;
28934;SDS011;16044;52.726;-2.108;2023-02-28T02:49:10;15.80;;;8.77;;
28934;SDS011;16044;52.726;-2.108;2023-02-28T02:51:49;13.88;;;8.20;;
28934;SDS011;16044;52.726;-2.108;2023-02-28T02:54:22;11.93;;;8.25;;
28934;SDS011;16044;52.726;-2.108;2023-02-28T02:56:58;13.65;;;8.40;;
28934;SDS011;16044;52.726;-2.108;2023-02-28T02:59:35;14.05;;;9.27;;
28934;SDS011;16044;52.726;-2.108;2023-02-28T03:02:11;16.17;;;10.55;;
28934;SDS011;16044;52.726;-2.108;2023-02-28T03:04:51;17.38;;;10.85;;
28934;SDS011;16044;52.726;-2.108;2023-02-28T03:07:27;14.68;;;9.30;;
28934;SDS011;16044;52.726;-2.108;2023-02-28T03:09:55;16.23;;;9.85;;
28934;SDS011;16044;52.726;-2.108;2023-02-28T03:12:28;15.27;;;10.38;;
28934;SDS011;16044;52.726;-2.108;2023-02-28T03:15:11;14.27;;;10.37;;
28934;SDS011;16044;52.726;-2.108;2023-02-28T03:18:10;16.23;;;10.77;;
28934;SDS011;16044;52.726;-2.108;2023-02-28T03:27:17;15.13;;;9.02;;
28934;SDS011;16044;52.726;-2.108;2023-02-28T03:35:32;13.05;;;9.30;;
28934;SDS011;16044;52.726;-2.108;2023-02-28T03:43:53;13.75;;;9.45;;
28934;SDS011;16044;52.726;-2.108;2023-02-28T03:46:25;16.45;;;9.43;;
28934;SDS011;16044;52.726;-2.108;2023-02-28T03:49:00;14.18;;;8.77;;
28934;SDS011;16044;52.726;-2.108;2023-02-28T03:51:40;14.27;;;10.13;;
28934;SDS011;16044;52.726;-2.108;2023-02-28T03:54:10;15.18;;;10.05;;
28934;SDS011;16044;52.726;-2.108;2023-02-28T03:56:56;17.73;;;11.20;;
28934;SDS011;16044;52.726;-2.108;2023-02-28T03:59:42;17.15;;;10.70;;
28934;SDS011;16044;52.726;-2.108;2023-02-28T04:02:14;18.25;;;10.98;;
28934;SDS011;16044;52.726;-2.108;2023-02-28T04:04:41;16.35;;;9.98;;
28934;SDS011;16044;52.726;-2.108;2023-02-28T04:07:11;20.20;;;10.48;;
28934;SDS011;16044;52.726;-2.108;2023-02-28T04:09:38;19.67;;;10.90;;
28934;SDS011;16044;52.726;-2.108;2023-02-28T04:12:05;16.27;;;11.05;;
28934;SDS011;16044;52.726;-2.108;2023-02-28T04:14:33;16.65;;;10.27;;
28934;SDS011;16044;52.726;-2.108;2023-02-28T04:17:00;17.17;;;11.30;;
28934;SDS011;16044;52.726;-2.108;2023-02-28T04:19:27;14.60;;;9.50;;
28934;SDS011;16044;52.726;-2.108;2023-02-28T04:21:54;15.48;;;10.05;;
28934;SDS011;16044;52.726;-2.108;2023-02-28T04:24:22;15.63;;;10.57;;
28934;SDS011;16044;52.726;-2.108;2023-02-28T04:26:53;14.98;;;10.05;;
28934;SDS011;16044;52.726;-2.108;2023-02-28T04:29:28;17.17;;;10.10;;
28934;SDS011;16044;52.726;-2.108;2023-02-28T04:31:59;13.82;;;9.50;;
28934;SDS011;16044;52.726;-2.108;2023-02-28T04:34:27;16.40;;;10.02;;
28934;SDS011;16044;52.726;-2.108;2023-02-28T04:36:57;19.80;;;10.80;;
28934;SDS011;16044;52.726;-2.108;2023-02-28T04:39:42;13.30;;;8.68;;
28934;SDS011;16044;52.726;-2.108;2023-02-28T04:42:12;14.60;;;8.60;;
28934;SDS011;16044;52.726;-2.108;2023-02-28T04:44:40;15.43;;;9.68;;
28934;SDS011;16044;52.726;-2.108;2023-02-28T04:47:07;16.58;;;10.18;;
28934;SDS011;16044;52.726;-2.108;2023-02-28T04:49:33;18.25;;;10.95;;
28934;SDS011;16044;52.726;-2.108;2023-02-28T04:52:01;17.42;;;9.90;;
28934;SDS011;16044;52.726;-2.108;2023-02-28T04:54:28;16.33;;;9.15;;
28934;SDS011;16044;52.726;-2.108;2023-02-28T04:56:56;13.98;;;9.45;;
28934;SDS011;16044;52.726;-2.108;2023-02-28T04:59:23;14.98;;;9.32;;
28934;SDS011;16044;52.726;-2.108;2023-02-28T05:01:53;14.63;;;9.10;;
28934;SDS011;16044;52.726;-2.108;2023-02-28T05:04:20;13.52;;;9.15;;
28934;SDS011;16044;52.726;-2.108;2023-02-28T05:06:47;13.23;;;8.85;;
28934;SDS011;16044;52.726;-2.108;2023-02-28T05:09:14;12.68;;;8.43;;
28934;SDS011;16044;52.726;-2.108;2023-02-28T05:11:41;15.25;;;8.85;;
28934;SDS011;16044;52.726;-2.108;2023-02-28T05:14:12;13.82;;;8.25;;
28934;SDS011;16044;52.726;-2.108;2023-02-28T05:16:40;13.10;;;8.32;;
28934;SDS011;16044;52.726;-2.108;2023-02-28T05:19:07;13.60;;;8.10;;
28934;SDS011;16044;52.726;-2.108;2023-02-28T05:21:38;11.60;;;7.90;;
28934;SDS011;16044;52.726;-2.108;2023-02-28T05:24:11;14.43;;;8.10;;
28934;SDS011;16044;52.726;-2.108;2023-02-28T05:26:39;13.38;;;8.00;;
28934;SDS011;16044;52.726;-2.108;2023-02-28T05:29:09;11.73;;;7.65;;
28934;SDS011;16044;52.726;-2.108;2023-02-28T05:31:36;10.38;;;7.20;;
28934;SDS011;16044;52.726;-2.108;2023-02-28T05:34:04;10.70;;;7.18;;
28934;SDS011;16044;52.726;-2.108;2023-02-28T05:36:31;11.45;;;7.13;;
28934;SDS011;16044;52.726;-2.108;2023-02-28T05:38:59;11.15;;;7.63;;
28934;SDS011;16044;52.726;-2.108;2023-02-28T05:41:25;11.80;;;8.05;;
28934;SDS011;16044;52.726;-2.108;2023-02-28T05:43:53;13.68;;;8.57;;
28934;SDS011;16044;52.726;-2.108;2023-02-28T05:46:20;12.57;;;8.27;;
28934;SDS011;16044;52.726;-2.108;2023-02-28T05:48:47;13.70;;;8.13;;
28934;SDS011;16044;52.726;-2.108;2023-02-28T05:51:15;14.57;;;9.05;;
28934;SDS011;16044;52.726;-2.108;2023-02-28T05:53:42;11.07;;;8.10;;
28934;SDS011;16044;52.726;-2.108;2023-02-28T05:56:10;19.25;;;9.13;;
28934;SDS011;16044;52.726;-2.108;2023-02-28T05:58:37;15.90;;;9.57;;
28934;SDS011;16044;52.726;-2.108;2023-02-28T06:04:08;12.98;;;8.80;;
28934;SDS011;16044;52.726;-2.108;2023-02-28T06:06:54;12.77;;;8.85;;
28934;SDS011;16044;52.726;-2.108;2023-02-28T06:09:23;15.43;;;9.13;;
28934;SDS011;16044;52.726;-2.108;2023-02-28T06:11:51;14.43;;;9.63;;
28934;SDS011;16044;52.726;-2.108;2023-02-28T06:14:18;13.75;;;8.45;;
28934;SDS011;16044;52.726;-2.108;2023-02-28T06:16:47;15.10;;;9.65;;
28934;SDS011;16044;52.726;-2.108;2023-02-28T06:19:14;14.18;;;9.05;;
28934;SDS011;16044;52.726;-2.108;2023-02-28T06:21:41;15.13;;;9.35;;
28934;SDS011;16044;52.726;-2.108;2023-02-28T06:24:09;12.70;;;8.43;;
28934;SDS011;16044;52.726;-2.108;2023-02-28T06:26:37;13.30;;;8.88;;
28934;SDS011;16044;52.726;-2.108;2023-02-28T06:29:04;12.40;;;8.73;;
28934;SDS011;16044;52.726;-2.108;2023-02-28T06:31:31;13.40;;;8.80;;
28934;SDS011;16044;52.726;-2.108;2023-02-28T06:33:58;13.52;;;8.45;;
28934;SDS011;16044;52.726;-2.108;2023-02-28T06:36:25;13.13;;;8.38;;
28934;SDS011;16044;52.726;-2.108;2023-02-28T06:38:52;13.70;;;9.38;;
28934;SDS011;16044;52.726;-2.108;2023-02-28T06:41:23;15.25;;;8.63;;
28934;SDS011;16044;52.726;-2.108;2023-02-28T06:43:51;13.85;;;9.02;;
28934;SDS011;16044;52.726;-2.108;2023-02-28T06:46:19;13.75;;;9.07;;
28934;SDS011;16044;52.726;-2.108;2023-02-28T06:48:46;14.43;;;8.77;;
28934;SDS011;16044;52.726;-2.108;2023-02-28T06:51:17;14.27;;;9.05;;
28934;SDS011;16044;52.726;-2.108;2023-02-28T06:53:48;13.50;;;8.07;;
28934;SDS011;16044;52.726;-2.108;2023-02-28T06:56:16;13.95;;;8.20;;
28934;SDS011;16044;52.726;-2.108;2023-02-28T06:58:48;13.73;;;8.32;;
28934;SDS011;16044;52.726;-2.108;2023-02-28T07:01:17;14.82;;;8.75;;
28934;SDS011;16044;52.726;-2.108;2023-02-28T07:03:45;15.95;;;9.35;;
28934;SDS011;16044;52.726;-2.108;2023-02-28T07:06:13;15.38;;;8.93;;
28934;SDS011;16044;52.726;-2.108;2023-02-28T07:08:40;16.52;;;9.50;;
28934;SDS011;16044;52.726;-2.108;2023-02-28T07:11:07;16.95;;;10.43;;
28934;SDS011;16044;52.726;-2.108;2023-02-28T07:13:34;19.63;;;11.90;;
28934;SDS011;16044;52.726;-2.108;2023-02-28T07:16:03;17.85;;;10.73;;
28934;SDS011;16044;52.726;-2.108;2023-02-28T07:18:33;16.65;;;10.50;;
28934;SDS011;16044;52.726;-2.108;2023-02-28T07:21:04;17.05;;;10.60;;
28934;SDS011;16044;52.726;-2.108;2023-02-28T07:23:33;14.95;;;9.57;;
28934;SDS011;16044;52.726;-2.108;2023-02-28T07:26:01;16.83;;;9.25;;
28934;SDS011;16044;52.726;-2.108;2023-02-28T07:28:28;15.88;;;8.80;;
28934;SDS011;16044;52.726;-2.108;2023-02-28T07:30:55;16.58;;;9.07;;
28934;SDS011;16044;52.726;-2.108;2023-02-28T07:33:22;18.50;;;10.35;;
28934;SDS011;16044;52.726;-2.108;2023-02-28T07:35:50;18.10;;;10.70;;
28934;SDS011;16044;52.726;-2.108;2023-02-28T07:38:17;17.80;;;9.68;;
28934;SDS011;16044;52.726;-2.108;2023-02-28T07:40:44;17.15;;;10.48;;
28934;SDS011;16044;52.726;-2.108;2023-02-28T07:43:11;23.88;;;11.85;;
28934;SDS011;16044;52.726;-2.108;2023-02-28T07:45:38;17.67;;;10.80;;
28934;SDS011;16044;52.726;-2.108;2023-02-28T07:48:05;21.17;;;12.00;;
28934;SDS011;16044;52.726;-2.108;2023-02-28T07:50:32;21.08;;;11.68;;
28934;SDS011;16044;52.726;-2.108;2023-02-28T07:52:59;23.85;;;13.35;;
28934;SDS011;16044;52.726;-2.108;2023-02-28T07:55:26;18.95;;;11.88;;
28934;SDS011;16044;52.726;-2.108;2023-02-28T07:57:53;22.65;;;12.30;;
28934;SDS011;16044;52.726;-2.108;2023-02-28T08:00:20;20.20;;;12.10;;
28934;SDS011;16044;52.726;-2.108;2023-02-28T08:02:48;18.30;;;11.77;;
28934;SDS011;16044;52.726;-2.108;2023-02-28T08:05:15;27.08;;;12.48;;
28934;SDS011;16044;52.726;-2.108;2023-02-28T08:07:43;18.85;;;12.02;;
28934;SDS011;16044;52.726;-2.108;2023-02-28T08:10:10;21.05;;;13.02;;
28934;SDS011;16044;52.726;-2.108;2023-02-28T08:12:38;21.30;;;12.57;;
28934;SDS011;16044;52.726;-2.108;2023-02-28T08:15:05;19.15;;;11.57;;
28934;SDS011;16044;52.726;-2.108;2023-02-28T08:17:32;21.75;;;12.43;;
28934;SDS011;16044;52.726;-2.108;2023-02-28T08:20:00;21.15;;;12.77;;
28934;SDS011;16044;52.726;-2.108;2023-02-28T08:22:27;22.77;;;13.35;;
28934;SDS011;16044;52.726;-2.108;2023-02-28T08:24:54;22.20;;;12.98;;
28934;SDS011;16044;52.726;-2.108;2023-02-28T08:27:21;25.92;;;14.98;;
28934;SDS011;16044;52.726;-2.108;2023-02-28T08:29:48;22.83;;;13.70;;
28934;SDS011;16044;52.726;-2.108;2023-02-28T08:32:14;23.25;;;14.45;;
28934;SDS011;16044;52.726;-2.108;2023-02-28T08:34:54;26.63;;;15.57;;
28934;SDS011;16044;52.726;-2.108;2023-02-28T08:37:22;25.73;;;14.90;;
28934;SDS011;16044;52.726;-2.108;2023-02-28T08:39:48;28.05;;;16.02;;
28934;SDS011;16044;52.726;-2.108;2023-02-28T08:42:15;24.80;;;15.20;;
28934;SDS011;16044;52.726;-2.108;2023-02-28T08:44:42;26.60;;;15.63;;
28934;SDS011;16044;52.726;-2.108;2023-02-28T08:47:09;26.70;;;16.33;;
28934;SDS011;16044;52.726;-2.108;2023-02-28T08:49:36;23.55;;;15.30;;
28934;SDS011;16044;52.726;-2.108;2023-02-28T08:52:04;28.77;;;16.23;;
28934;SDS011;16044;52.726;-2.108;2023-02-28T08:54:31;26.35;;;15.82;;
28934;SDS011;16044;52.726;-2.108;2023-02-28T08:56:59;23.58;;;14.18;;
28934;SDS011;16044;52.726;-2.108;2023-02-28T08:59:26;21.98;;;14.10;;
28934;SDS011;16044;52.726;-2.108;2023-02-28T09:01:54;21.20;;;13.77;;
28934;SDS011;16044;52.726;-2.108;2023-02-28T09:04:21;18.38;;;12.48;;
28934;SDS011;16044;52.726;-2.108;2023-02-28T09:06:50;20.90;;;12.35;;
28934;SDS011;16044;52.726;-2.108;2023-02-28T09:09:17;18.88;;;12.35;;
28934;SDS011;16044;52.726;-2.108;2023-02-28T09:11:44;18.42;;;11.98;;
28934;SDS011;16044;52.726;-2.108;2023-02-28T09:14:11;22.85;;;12.57;;
28934;SDS011;16044;52.726;-2.108;2023-02-28T09:16:38;19.63;;;11.90;;
28934;SDS011;16044;52.726;-2.108;2023-02-28T09:19:05;18.95;;;11.77;;
28934;SDS011;16044;52.726;-2.108;2023-02-28T09:21:32;17.92;;;11.05;;
28934;SDS011;16044;52.726;-2.108;2023-02-28T09:23:59;16.08;;;11.15;;
28934;SDS011;16044;52.726;-2.108;2023-02-28T09:26:26;16.48;;;11.32;;
28934;SDS011;16044;52.726;-2.108;2023-02-28T09:29:07;18.92;;;11.60;;
28934;SDS011;16044;52.726;-2.108;2023-02-28T09:31:34;17.75;;;11.77;;
28934;SDS011;16044;52.726;-2.108;2023-02-28T09:34:01;19.73;;;13.40;;
28934;SDS011;16044;52.726;-2.108;2023-02-28T09:36:30;20.60;;;11.88;;
28934;SDS011;16044;52.726;-2.108;2023-02-28T09:39:10;19.48;;;12.23;;
28934;SDS011;16044;52.726;-2.108;2023-02-28T09:41:40;20.48;;;12.77;;
28934;SDS011;16044;52.726;-2.108;2023-02-28T09:45:00;15.50;;;10.55;;
28934;SDS011;16044;52.726;-2.108;2023-02-28T09:52:53;13.60;;;9.02;;
28934;SDS011;16044;52.726;-2.108;2023-02-28T09:55:24;15.77;;;9.15;;
28934;SDS011;16044;52.726;-2.108;2023-02-28T09:58:00;12.48;;;8.45;;
28934;SDS011;16044;52.726;-2.108;2023-02-28T10:08:50;14.18;;;8.20;;
28934;SDS011;16044;52.726;-2.108;2023-02-28T10:11:29;10.93;;;7.72;;
28934;SDS011;16044;52.726;-2.108;2023-02-28T10:14:10;9.40;;;6.50;;
28934;SDS011;16044;52.726;-2.108;2023-02-28T10:16:55;9.45;;;6.60;;
28934;SDS011;16044;52.726;-2.108;2023-02-28T10:22:51;10.60;;;7.30;;
28934;SDS011;16044;52.726;-2.108;2023-02-28T10:25:24;10.77;;;6.43;;
28934;SDS011;16044;52.726;-2.108;2023-02-28T10:28:16;12.57;;;7.72;;
28934;SDS011;16044;52.726;-2.108;2023-02-28T10:30:46;14.23;;;8.25;;
28934;SDS011;16044;52.726;-2.108;2023-02-28T10:33:21;10.70;;;7.60;;
28934;SDS011;16044;52.726;-2.108;2023-02-28T10:36:03;12.63;;;7.65;;
28934;SDS011;16044;52.726;-2.108;2023-02-28T10:38:37;10.95;;;7.38;;
28934;SDS011;16044;52.726;-2.108;2023-02-28T10:41:10;11.70;;;6.50;;
28934;SDS011;16044;52.726;-2.108;2023-02-28T10:43:43;10.13;;;6.65;;
28934;SDS011;16044;52.726;-2.108;2023-02-28T10:46:14;10.27;;;6.68;;
28934;SDS011;16044;52.726;-2.108;2023-02-28T10:49:05;10.35;;;6.50;;
28934;SDS011;16044;52.726;-2.108;2023-02-28T10:51:41;12.90;;;6.72;;
28934;SDS011;16044;52.726;-2.108;2023-02-28T10:54:42;7.78;;;4.95;;
28934;SDS011;16044;52.726;-2.108;2023-02-28T10:59:46;5.55;;;3.42;;
28934;SDS011;16044;52.726;-2.108;2023-02-28T11:02:35;4.03;;;2.80;;
28934;SDS011;16044;52.726;-2.108;2023-02-28T11:10:48;5.25;;;3.40;;
28934;SDS011;16044;52.726;-2.108;2023-02-28T11:13:27;4.55;;;2.90;;
28934;SDS011;16044;52.726;-2.108;2023-02-28T11:16:01;4.53;;;2.35;;
28934;SDS011;16044;52.726;-2.108;2023-02-28T11:21:27;2.60;;;1.58;;
28934;SDS011;16044;52.726;-2.108;2023-02-28T11:26:36;4.55;;;1.60;;
28934;SDS011;16044;52.726;-2.108;2023-02-28T11:29:23;2.70;;;1.50;;
28934;SDS011;16044;52.726;-2.108;2023-02-28T11:34:37;3.97;;;1.60;;
28934;SDS011;16044;52.726;-2.108;2023-02-28T11:37:09;3.92;;;1.20;;
28934;SDS011;16044;52.726;-2.108;2023-02-28T11:39:40;3.33;;;1.92;;
28934;SDS011;16044;52.726;-2.108;2023-02-28T11:54:03;7.70;;;3.55;;
28934;SDS011;16044;52.726;-2.108;2023-02-28T11:59:56;4.85;;;3.13;;
28934;SDS011;16044;52.726;-2.108;2023-02-28T12:02:50;4.07;;;2.45;;
28934;SDS011;16044;52.726;-2.108;2023-02-28T12:21:03;3.30;;;2.20;;
28934;SDS011;16044;52.726;-2.108;2023-02-28T12:29:53;3.08;;;1.30;;
28934;SDS011;16044;52.726;-2.108;2023-02-28T12:32:20;1.60;;;1.08;;
28934;SDS011;16044;52.726;-2.108;2023-02-28T12:35:04;1.50;;;0.77;;
28934;SDS011;16044;52.726;-2.108;2023-02-28T12:37:41;1.70;;;0.70;;
28934;SDS011;16044;52.726;-2.108;2023-02-28T12:40:18;2.15;;;0.70;;
28934;SDS011;16044;52.726;-2.108;2023-02-28T12:42:49;1.83;;;0.60;;
28934;SDS011;16044;52.726;-2.108;2023-02-28T12:45:21;1.60;;;0.52;;
28934;SDS011;16044;52.726;-2.108;2023-02-28T12:47:55;2.50;;;0.63;;
28934;SDS011;16044;52.726;-2.108;2023-02-28T12:50:29;1.95;;;0.73;;
28934;SDS011;16044;52.726;-2.108;2023-02-28T12:53:00;2.28;;;0.80;;
28934;SDS011;16044;52.726;-2.108;2023-02-28T12:55:40;2.58;;;1.75;;
28934;SDS011;16044;52.726;-2.108;2023-02-28T13:10:04;3.55;;;1.52;;
28934;SDS011;16044;52.726;-2.108;2023-02-28T13:12:34;3.97;;;1.70;;
28934;SDS011;16044;52.726;-2.108;2023-02-28T13:15:24;3.40;;;1.73;;
28934;SDS011;16044;52.726;-2.108;2023-02-28T13:17:55;4.22;;;1.80;;
28934;SDS011;16044;52.726;-2.108;2023-02-28T13:20:26;2.28;;;1.58;;
28934;SDS011;16044;52.726;-2.108;2023-02-28T13:22:58;5.07;;;1.77;;
28934;SDS011;16044;52.726;-2.108;2023-02-28T13:25:49;5.00;;;1.45;;
28934;SDS011;16044;52.726;-2.108;2023-02-28T13:31:17;3.03;;;1.60;;
28934;SDS011;16044;52.726;-2.108;2023-02-28T13:38:46;2.95;;;1.30;;
28934;SDS011;16044;52.726;-2.108;2023-02-28T13:52:06;3.15;;;1.10;;
28934;SDS011;16044;52.726;-2.108;2023-02-28T13:54:56;2.40;;;1.00;;
28934;SDS011;16044;52.726;-2.108;2023-02-28T14:07:02;4.13;;;1.40;;
28934;SDS011;16044;52.726;-2.108;2023-02-28T14:09:38;4.25;;;1.30;;
28934;SDS011;16044;52.726;-2.108;2023-02-28T14:18:03;2.90;;;1.13;;
28934;SDS011;16044;52.726;-2.108;2023-02-28T14:20:45;2.22;;;1.38;;
28934;SDS011;16044;52.726;-2.108;2023-02-28T14:32:35;2.85;;;1.35;;
28934;SDS011;16044;52.726;-2.108;2023-02-28T14:37:52;4.45;;;1.77;;
28934;SDS011;16044;52.726;-2.108;2023-02-28T14:40:28;4.70;;;2.00;;
28934;SDS011;16044;52.726;-2.108;2023-02-28T14:42:58;6.15;;;2.25;;
28934;SDS011;16044;52.726;-2.108;2023-02-28T14:45:30;8.13;;;2.38;;
28934;SDS011;16044;52.726;-2.108;2023-02-28T14:48:01;6.70;;;3.28;;
28934;SDS011;16044;52.726;-2.108;2023-02-28T14:50:30;4.82;;;2.40;;
28934;SDS011;16044;52.726;-2.108;2023-02-28T14:53:01;3.65;;;1.67;;
28934;SDS011;16044;52.726;-2.108;2023-02-28T14:55:30;6.07;;;1.70;;
28934;SDS011;16044;52.726;-2.108;2023-02-28T14:58:02;3.80;;;2.03;;
28934;SDS011;16044;52.726;-2.108;2023-02-28T15:00:36;2.70;;;1.60;;
28934;SDS011;16044;52.726;-2.108;2023-02-28T15:03:18;5.30;;;1.80;;
28934;SDS011;16044;52.726;-2.108;2023-02-28T15:06:00;5.38;;;2.00;;
28934;SDS011;16044;52.726;-2.108;2023-02-28T15:08:37;8.43;;;2.05;;
28934;SDS011;16044;52.726;-2.108;2023-02-28T15:11:05;3.20;;;1.70;;
28934;SDS011;16044;52.726;-2.108;2023-02-28T15:16:14;6.18;;;2.40;;
28934;SDS011;16044;52.726;-2.108;2023-02-28T15:24:44;3.50;;;1.85;;
28934;SDS011;16044;52.726;-2.108;2023-02-28T15:27:21;4.22;;;1.73;;
28934;SDS011;16044;52.726;-2.108;2023-02-28T15:29:57;9.52;;;2.85;;
28934;SDS011;16044;52.726;-2.108;2023-02-28T15:35:17;2.92;;;1.70;;
28934;SDS011;16044;52.726;-2.108;2023-02-28T15:38:03;4.63;;;1.70;;
28934;SDS011;16044;52.726;-2.108;2023-02-28T15:40:42;2.22;;;1.60;;
28934;SDS011;16044;52.726;-2.108;2023-02-28T15:46:03;4.07;;;2.60;;
28934;SDS011;16044;52.726;-2.108;2023-02-28T15:48:45;5.10;;;2.72;;
28934;SDS011;16044;52.726;-2.108;2023-02-28T15:51:22;4.97;;;3.22;;
28934;SDS011;16044;52.726;-2.108;2023-02-28T15:56:40;5.40;;;3.60;;
28934;SDS011;16044;52.726;-2.108;2023-02-28T15:59:19;9.02;;;3.95;;
28934;SDS011;16044;52.726;-2.108;2023-02-28T16:02:29;5.10;;;3.38;;
28934;SDS011;16044;52.726;-2.108;2023-02-28T16:07:37;5.55;;;2.83;;
28934;SDS011;16044;52.726;-2.108;2023-02-28T16:10:07;4.95;;;2.83;;
28934;SDS011;16044;52.726;-2.108;2023-02-28T16:12:36;4.75;;;2.28;;
28934;SDS011;16044;52.726;-2.108;2023-02-28T16:15:14;3.85;;;1.83;;
28934;SDS011;16044;52.726;-2.108;2023-02-28T16:17:56;4.90;;;2.08;;
28934;SDS011;16044;52.726;-2.108;2023-02-28T16:20:28;3.38;;;2.20;;
28934;SDS011;16044;52.726;-2.108;2023-02-28T16:22:57;4.90;;;2.00;;
28934;SDS011;16044;52.726;-2.108;2023-02-28T16:25:35;3.33;;;2.08;;
28934;SDS011;16044;52.726;-2.108;2023-02-28T16:28:06;4.55;;;2.10;;
28934;SDS011;16044;52.726;-2.108;2023-02-28T16:30:44;2.90;;;1.90;;
28934;SDS011;16044;52.726;-2.108;2023-02-28T16:33:11;5.03;;;2.10;;
28934;SDS011;16044;52.726;-2.108;2023-02-28T16:35:38;3.95;;;1.90;;
28934;SDS011;16044;52.726;-2.108;2023-02-28T16:38:05;4.22;;;1.65;;
28934;SDS011;16044;52.726;-2.108;2023-02-28T16:40:33;5.20;;;1.50;;
28934;SDS011;16044;52.726;-2.108;2023-02-28T16:43:04;4.05;;;1.77;;
28934;SDS011;16044;52.726;-2.108;2023-02-28T16:45:36;5.13;;;1.63;;
28934;SDS011;16044;52.726;-2.108;2023-02-28T16:48:03;2.50;;;1.30;;
28934;SDS011;16044;52.726;-2.108;2023-02-28T16:50:30;2.33;;;1.13;;
28934;SDS011;16044;52.726;-2.108;2023-02-28T16:52:58;2.20;;;1.15;;
28934;SDS011;16044;52.726;-2.108;2023-02-28T16:55:26;2.65;;;1.70;;
28934;SDS011;16044;52.726;-2.108;2023-02-28T16:57:54;3.92;;;2.00;;
28934;SDS011;16044;52.726;-2.108;2023-02-28T17:00:25;4.47;;;1.95;;
28934;SDS011;16044;52.726;-2.108;2023-02-28T17:02:55;5.47;;;2.03;;
28934;SDS011;16044;52.726;-2.108;2023-02-28T17:05:22;3.92;;;1.63;;
28934;SDS011;16044;52.726;-2.108;2023-02-28T17:07:50;3.95;;;2.03;;
28934;SDS011;16044;52.726;-2.108;2023-02-28T17:10:18;2.63;;;1.50;;
28934;SDS011;16044;52.726;-2.108;2023-02-28T17:12:49;5.03;;;1.55;;
28934;SDS011;16044;52.726;-2.108;2023-02-28T17:15:20;6.35;;;1.65;;
28934;SDS011;16044;52.726;-2.108;2023-02-28T17:17:47;4.22;;;1.35;;
28934;SDS011;16044;52.726;-2.108;2023-02-28T17:20:19;7.47;;;1.80;;
28934;SDS011;16044;52.726;-2.108;2023-02-28T17:22:53;7.60;;;2.10;;
28934;SDS011;16044;52.726;-2.108;2023-02-28T17:25:21;6.28;;;2.35;;
28934;SDS011;16044;52.726;-2.108;2023-02-28T17:27:49;6.55;;;2.42;;
28934;SDS011;16044;52.726;-2.108;2023-02-28T17:30:23;7.93;;;2.05;;
28934;SDS011;16044;52.726;-2.108;2023-02-28T17:32:56;4.82;;;2.03;;
28934;SDS011;16044;52.726;-2.108;2023-02-28T17:35:23;6.05;;;2.20;;
28934;SDS011;16044;52.726;-2.108;2023-02-28T17:37:50;6.85;;;2.60;;
28934;SDS011;16044;52.726;-2.108;2023-02-28T17:40:20;8.50;;;1.90;;
28934;SDS011;16044;52.726;-2.108;2023-02-28T17:42:49;5.50;;;1.77;;
28934;SDS011;16044;52.726;-2.108;2023-02-28T17:45:18;9.52;;;1.75;;
28934;SDS011;16044;52.726;-2.108;2023-02-28T17:47:47;6.90;;;2.03;;
28934;SDS011;16044;52.726;-2.108;2023-02-28T17:50:17;9.02;;;3.17;;
28934;SDS011;16044;52.726;-2.108;2023-02-28T17:52:47;13.48;;;3.75;;
28934;SDS011;16044;52.726;-2.108;2023-02-28T17:55:16;8.02;;;3.13;;
28934;SDS011;16044;52.726;-2.108;2023-02-28T17:57:45;7.55;;;3.30;;
28934;SDS011;16044;52.726;-2.108;2023-02-28T18:00:14;7.65;;;2.90;;
28934;SDS011;16044;52.726;-2.108;2023-02-28T18:02:44;5.15;;;2.20;;